sensor_id;sensor_type;location;lat;lon;timestamp;P1;durP1;ratioP1;P2;durP2;ratioP2
81463;SDS011;70885;52.490;5.428;2023-07-02T00:03:37;13.77;;;3.42;;
81463;SDS011;70885;52.490;5.428;2023-07-02T00:08:39;7.38;;;3.08;;
81463;SDS011;70885;52.490;5.428;2023-07-02T00:13:41;10.00;;;2.95;;
81463;SDS011;70885;52.490;5.428;2023-07-02T00:18:43;9.57;;;3.15;;
81463;SDS011;70885;52.490;5.428;2023-07-02T00:23:44;9.20;;;3.13;;
81463;SDS011;70885;52.490;5.428;2023-07-02T00:28:46;8.82;;;3.10;;
81463;SDS011;70885;52.490;5.428;2023-07-02T00:33:48;10.80;;;2.83;;
81463;SDS011;70885;52.490;5.428;2023-07-02T00:38:49;10.68;;;3.38;;
81463;SDS011;70885;52.490;5.428;2023-07-02T00:43:51;15.75;;;3.35;;
81463;SDS011;70885;52.490;5.428;2023-07-02T00:48:56;11.63;;;3.08;;
81463;SDS011;70885;52.490;5.428;2023-07-02T00:53:58;8.88;;;2.92;;
81463;SDS011;70885;52.490;5.428;2023-07-02T00:59:00;11.45;;;3.55;;
81463;SDS011;70885;52.490;5.428;2023-07-02T01:04:02;8.25;;;3.05;;
81463;SDS011;70885;52.490;5.428;2023-07-02T01:09:06;15.05;;;3.63;;
81463;SDS011;70885;52.490;5.428;2023-07-02T01:19:16;10.63;;;3.08;;
81463;SDS011;70885;52.490;5.428;2023-07-02T01:24:20;13.18;;;3.30;;
81463;SDS011;70885;52.490;5.428;2023-07-02T01:29:22;11.05;;;3.53;;
81463;SDS011;70885;52.490;5.428;2023-07-02T01:34:24;13.35;;;3.78;;
81463;SDS011;70885;52.490;5.428;2023-07-02T01:39:25;9.27;;;3.65;;
81463;SDS011;70885;52.490;5.428;2023-07-02T01:44:27;12.23;;;3.55;;
81463;SDS011;70885;52.490;5.428;2023-07-02T01:49:29;10.63;;;3.08;;
81463;SDS011;70885;52.490;5.428;2023-07-02T01:54:30;16.60;;;3.83;;
81463;SDS011;70885;52.490;5.428;2023-07-02T01:59:33;15.77;;;3.90;;
81463;SDS011;70885;52.490;5.428;2023-07-02T02:04:35;9.45;;;3.55;;
81463;SDS011;70885;52.490;5.428;2023-07-02T02:09:36;11.60;;;3.33;;
81463;SDS011;70885;52.490;5.428;2023-07-02T02:14:38;11.48;;;3.50;;
81463;SDS011;70885;52.490;5.428;2023-07-02T02:19:39;10.30;;;2.70;;
81463;SDS011;70885;52.490;5.428;2023-07-02T02:24:41;13.40;;;4.10;;
81463;SDS011;70885;52.490;5.428;2023-07-02T02:29:43;8.73;;;3.08;;
81463;SDS011;70885;52.490;5.428;2023-07-02T02:34:44;10.48;;;3.50;;
81463;SDS011;70885;52.490;5.428;2023-07-02T02:39:46;10.43;;;3.28;;
81463;SDS011;70885;52.490;5.428;2023-07-02T02:44:47;9.00;;;2.95;;
81463;SDS011;70885;52.490;5.428;2023-07-02T02:49:49;18.58;;;4.13;;
81463;SDS011;70885;52.490;5.428;2023-07-02T02:54:50;10.38;;;3.00;;
81463;SDS011;70885;52.490;5.428;2023-07-02T02:59:54;14.07;;;3.75;;
81463;SDS011;70885;52.490;5.428;2023-07-02T03:04:55;9.75;;;3.20;;
81463;SDS011;70885;52.490;5.428;2023-07-02T03:09:58;13.77;;;3.47;;
81463;SDS011;70885;52.490;5.428;2023-07-02T03:15:00;9.68;;;3.55;;
81463;SDS011;70885;52.490;5.428;2023-07-02T03:20:02;13.63;;;3.72;;
81463;SDS011;70885;52.490;5.428;2023-07-02T03:25:05;15.95;;;3.53;;
81463;SDS011;70885;52.490;5.428;2023-07-02T03:30:07;15.02;;;4.53;;
81463;SDS011;70885;52.490;5.428;2023-07-02T03:35:09;12.65;;;3.72;;
81463;SDS011;70885;52.490;5.428;2023-07-02T03:40:10;17.17;;;4.38;;
81463;SDS011;70885;52.490;5.428;2023-07-02T03:45:12;13.15;;;3.10;;
81463;SDS011;70885;52.490;5.428;2023-07-02T03:50:13;7.68;;;2.28;;
81463;SDS011;70885;52.490;5.428;2023-07-02T03:55:15;14.95;;;3.78;;
81463;SDS011;70885;52.490;5.428;2023-07-02T04:00:17;11.27;;;3.65;;
81463;SDS011;70885;52.490;5.428;2023-07-02T04:05:18;15.80;;;3.33;;
81463;SDS011;70885;52.490;5.428;2023-07-02T04:10:21;12.75;;;3.47;;
81463;SDS011;70885;52.490;5.428;2023-07-02T04:15:23;9.70;;;3.97;;
81463;SDS011;70885;52.490;5.428;2023-07-02T04:20:25;15.02;;;3.90;;
81463;SDS011;70885;52.490;5.428;2023-07-02T04:25:27;13.40;;;3.63;;
81463;SDS011;70885;52.490;5.428;2023-07-02T04:30:48;14.15;;;3.50;;
81463;SDS011;70885;52.490;5.428;2023-07-02T04:35:51;14.88;;;3.67;;
81463;SDS011;70885;52.490;5.428;2023-07-02T04:40:53;15.85;;;3.45;;
81463;SDS011;70885;52.490;5.428;2023-07-02T04:45:55;13.55;;;3.28;;
81463;SDS011;70885;52.490;5.428;2023-07-02T04:50:57;15.32;;;3.58;;
81463;SDS011;70885;52.490;5.428;2023-07-02T04:55:58;12.52;;;3.17;;
81463;SDS011;70885;52.490;5.428;2023-07-02T05:01:00;8.30;;;3.30;;
81463;SDS011;70885;52.490;5.428;2023-07-02T05:06:01;7.47;;;3.08;;
81463;SDS011;70885;52.490;5.428;2023-07-02T05:11:03;10.80;;;2.40;;
81463;SDS011;70885;52.490;5.428;2023-07-02T05:16:05;9.35;;;2.75;;
81463;SDS011;70885;52.490;5.428;2023-07-02T05:21:06;11.40;;;2.90;;
81463;SDS011;70885;52.490;5.428;2023-07-02T05:26:08;13.35;;;2.85;;
81463;SDS011;70885;52.490;5.428;2023-07-02T05:31:09;15.00;;;3.03;;
81463;SDS011;70885;52.490;5.428;2023-07-02T05:36:11;10.10;;;2.92;;
81463;SDS011;70885;52.490;5.428;2023-07-02T05:41:19;11.85;;;2.78;;
81463;SDS011;70885;52.490;5.428;2023-07-02T05:46:21;10.52;;;3.55;;
81463;SDS011;70885;52.490;5.428;2023-07-02T05:51:23;15.27;;;3.30;;
81463;SDS011;70885;52.490;5.428;2023-07-02T05:56:25;10.27;;;2.80;;
81463;SDS011;70885;52.490;5.428;2023-07-02T06:01:27;10.05;;;3.17;;
81463;SDS011;70885;52.490;5.428;2023-07-02T06:06:28;6.80;;;2.95;;
81463;SDS011;70885;52.490;5.428;2023-07-02T06:11:30;9.30;;;2.50;;
81463;SDS011;70885;52.490;5.428;2023-07-02T06:16:31;13.48;;;3.17;;
81463;SDS011;70885;52.490;5.428;2023-07-02T06:21:33;11.13;;;2.58;;
81463;SDS011;70885;52.490;5.428;2023-07-02T06:26:35;8.73;;;3.60;;
81463;SDS011;70885;52.490;5.428;2023-07-02T06:31:36;13.50;;;2.50;;
81463;SDS011;70885;52.490;5.428;2023-07-02T06:36:38;8.65;;;2.90;;
81463;SDS011;70885;52.490;5.428;2023-07-02T06:41:39;7.20;;;2.28;;
81463;SDS011;70885;52.490;5.428;2023-07-02T06:46:41;11.52;;;2.85;;
81463;SDS011;70885;52.490;5.428;2023-07-02T06:51:43;9.38;;;2.20;;
81463;SDS011;70885;52.490;5.428;2023-07-02T06:56:44;10.73;;;2.55;;
81463;SDS011;70885;52.490;5.428;2023-07-02T07:01:45;7.90;;;2.08;;
81463;SDS011;70885;52.490;5.428;2023-07-02T07:06:47;8.82;;;2.55;;
81463;SDS011;70885;52.490;5.428;2023-07-02T07:11:48;11.32;;;2.50;;
81463;SDS011;70885;52.490;5.428;2023-07-02T07:16:50;7.70;;;2.42;;
81463;SDS011;70885;52.490;5.428;2023-07-02T07:21:51;6.35;;;2.00;;
81463;SDS011;70885;52.490;5.428;2023-07-02T07:26:53;10.20;;;2.90;;
81463;SDS011;70885;52.490;5.428;2023-07-02T07:31:54;9.10;;;2.13;;
81463;SDS011;70885;52.490;5.428;2023-07-02T07:36:56;4.50;;;1.75;;
81463;SDS011;70885;52.490;5.428;2023-07-02T07:41:58;4.93;;;2.40;;
81463;SDS011;70885;52.490;5.428;2023-07-02T07:46:59;5.20;;;2.28;;
81463;SDS011;70885;52.490;5.428;2023-07-02T07:52:01;5.68;;;1.50;;
81463;SDS011;70885;52.490;5.428;2023-07-02T07:57:04;7.25;;;2.00;;
81463;SDS011;70885;52.490;5.428;2023-07-02T08:02:06;12.68;;;2.17;;
81463;SDS011;70885;52.490;5.428;2023-07-02T08:07:08;8.02;;;1.88;;
81463;SDS011;70885;52.490;5.428;2023-07-02T08:12:10;8.10;;;2.03;;
81463;SDS011;70885;52.490;5.428;2023-07-02T08:17:11;7.97;;;3.13;;
81463;SDS011;70885;52.490;5.428;2023-07-02T08:22:13;11.55;;;2.30;;
81463;SDS011;70885;52.490;5.428;2023-07-02T08:27:15;10.35;;;3.20;;
81463;SDS011;70885;52.490;5.428;2023-07-02T08:32:20;11.65;;;3.40;;
81463;SDS011;70885;52.490;5.428;2023-07-02T08:37:22;6.32;;;2.70;;
81463;SDS011;70885;52.490;5.428;2023-07-02T08:42:24;5.57;;;2.67;;
81463;SDS011;70885;52.490;5.428;2023-07-02T08:47:25;12.80;;;2.90;;
81463;SDS011;70885;52.490;5.428;2023-07-02T08:52:27;4.47;;;1.98;;
81463;SDS011;70885;52.490;5.428;2023-07-02T08:57:28;7.53;;;2.15;;
81463;SDS011;70885;52.490;5.428;2023-07-02T09:02:31;9.07;;;2.35;;
81463;SDS011;70885;52.490;5.428;2023-07-02T09:07:47;7.60;;;2.25;;
81463;SDS011;70885;52.490;5.428;2023-07-02T09:13:06;6.07;;;1.60;;
81463;SDS011;70885;52.490;5.428;2023-07-02T09:18:21;5.30;;;2.08;;
81463;SDS011;70885;52.490;5.428;2023-07-02T09:23:35;7.07;;;2.13;;
81463;SDS011;70885;52.490;5.428;2023-07-02T09:28:37;5.55;;;1.80;;
81463;SDS011;70885;52.490;5.428;2023-07-02T09:33:39;7.90;;;1.70;;
81463;SDS011;70885;52.490;5.428;2023-07-02T09:38:40;8.88;;;1.98;;
81463;SDS011;70885;52.490;5.428;2023-07-02T09:43:42;9.02;;;1.83;;
81463;SDS011;70885;52.490;5.428;2023-07-02T09:48:44;7.00;;;1.98;;
81463;SDS011;70885;52.490;5.428;2023-07-02T09:53:46;6.03;;;1.75;;
81463;SDS011;70885;52.490;5.428;2023-07-02T09:58:48;5.57;;;2.00;;
81463;SDS011;70885;52.490;5.428;2023-07-02T10:03:49;7.60;;;1.90;;
81463;SDS011;70885;52.490;5.428;2023-07-02T10:08:57;8.57;;;1.88;;
81463;SDS011;70885;52.490;5.428;2023-07-02T10:13:59;5.78;;;1.95;;
81463;SDS011;70885;52.490;5.428;2023-07-02T10:19:11;5.15;;;1.70;;
81463;SDS011;70885;52.490;5.428;2023-07-02T10:24:14;4.72;;;1.60;;
81463;SDS011;70885;52.490;5.428;2023-07-02T10:29:22;4.90;;;1.27;;
81463;SDS011;70885;52.490;5.428;2023-07-02T10:39:31;9.07;;;1.70;;
81463;SDS011;70885;52.490;5.428;2023-07-02T10:44:34;5.82;;;1.58;;
81463;SDS011;70885;52.490;5.428;2023-07-02T10:49:36;5.45;;;1.13;;
81463;SDS011;70885;52.490;5.428;2023-07-02T10:59:47;3.28;;;0.90;;
81463;SDS011;70885;52.490;5.428;2023-07-02T11:04:49;3.25;;;1.20;;
81463;SDS011;70885;52.490;5.428;2023-07-02T11:09:51;11.82;;;2.17;;
81463;SDS011;70885;52.490;5.428;2023-07-02T11:14:53;5.28;;;1.95;;
81463;SDS011;70885;52.490;5.428;2023-07-02T11:19:54;6.65;;;1.30;;
81463;SDS011;70885;52.490;5.428;2023-07-02T11:24:56;6.00;;;1.65;;
81463;SDS011;70885;52.490;5.428;2023-07-02T11:30:00;6.22;;;1.63;;
81463;SDS011;70885;52.490;5.428;2023-07-02T11:35:01;4.70;;;1.75;;
81463;SDS011;70885;52.490;5.428;2023-07-02T11:40:03;6.22;;;1.85;;
81463;SDS011;70885;52.490;5.428;2023-07-02T11:45:05;5.85;;;1.70;;
81463;SDS011;70885;52.490;5.428;2023-07-02T11:50:07;2.47;;;1.20;;
81463;SDS011;70885;52.490;5.428;2023-07-02T11:55:25;3.95;;;1.30;;
81463;SDS011;70885;52.490;5.428;2023-07-02T12:00:26;3.53;;;1.58;;
81463;SDS011;70885;52.490;5.428;2023-07-02T12:05:28;7.40;;;1.92;;
81463;SDS011;70885;52.490;5.428;2023-07-02T12:10:29;6.88;;;2.40;;
81463;SDS011;70885;52.490;5.428;2023-07-02T12:15:31;4.78;;;1.02;;
81463;SDS011;70885;52.490;5.428;2023-07-02T12:20:33;7.20;;;1.63;;
81463;SDS011;70885;52.490;5.428;2023-07-02T12:25:34;6.75;;;1.55;;
81463;SDS011;70885;52.490;5.428;2023-07-02T12:30:36;5.90;;;1.73;;
81463;SDS011;70885;52.490;5.428;2023-07-02T12:35:37;5.70;;;1.65;;
81463;SDS011;70885;52.490;5.428;2023-07-02T12:40:39;8.15;;;1.98;;
81463;SDS011;70885;52.490;5.428;2023-07-02T12:45:40;5.88;;;2.00;;
81463;SDS011;70885;52.490;5.428;2023-07-02T12:50:42;3.65;;;1.35;;
81463;SDS011;70885;52.490;5.428;2023-07-02T12:55:55;5.07;;;1.55;;
81463;SDS011;70885;52.490;5.428;2023-07-02T13:00:57;4.43;;;1.50;;
81463;SDS011;70885;52.490;5.428;2023-07-02T13:05:58;4.97;;;1.67;;
81463;SDS011;70885;52.490;5.428;2023-07-02T13:11:00;4.63;;;1.58;;
81463;SDS011;70885;52.490;5.428;2023-07-02T13:16:02;6.80;;;1.67;;
81463;SDS011;70885;52.490;5.428;2023-07-02T13:21:04;5.72;;;1.75;;
81463;SDS011;70885;52.490;5.428;2023-07-02T13:26:05;4.25;;;1.50;;
81463;SDS011;70885;52.490;5.428;2023-07-02T13:31:07;6.45;;;1.80;;
81463;SDS011;70885;52.490;5.428;2023-07-02T13:36:10;3.78;;;1.60;;
81463;SDS011;70885;52.490;5.428;2023-07-02T13:41:12;3.45;;;1.98;;
81463;SDS011;70885;52.490;5.428;2023-07-02T13:46:13;3.13;;;1.20;;
81463;SDS011;70885;52.490;5.428;2023-07-02T13:51:15;7.82;;;1.83;;
81463;SDS011;70885;52.490;5.428;2023-07-02T13:56:16;5.22;;;1.08;;
81463;SDS011;70885;52.490;5.428;2023-07-02T14:01:18;4.57;;;1.40;;
81463;SDS011;70885;52.490;5.428;2023-07-02T14:06:19;5.95;;;1.92;;
81463;SDS011;70885;52.490;5.428;2023-07-02T14:11:22;5.32;;;1.52;;
81463;SDS011;70885;52.490;5.428;2023-07-02T14:16:25;5.60;;;1.42;;
81463;SDS011;70885;52.490;5.428;2023-07-02T14:21:27;5.85;;;1.83;;
81463;SDS011;70885;52.490;5.428;2023-07-02T14:26:28;6.65;;;1.65;;
81463;SDS011;70885;52.490;5.428;2023-07-02T14:31:31;5.43;;;1.58;;
81463;SDS011;70885;52.490;5.428;2023-07-02T14:36:32;6.60;;;1.60;;
81463;SDS011;70885;52.490;5.428;2023-07-02T14:41:34;6.05;;;1.70;;
81463;SDS011;70885;52.490;5.428;2023-07-02T14:46:38;4.82;;;2.00;;
81463;SDS011;70885;52.490;5.428;2023-07-02T14:51:40;6.00;;;1.58;;
81463;SDS011;70885;52.490;5.428;2023-07-02T14:56:42;4.10;;;1.25;;
81463;SDS011;70885;52.490;5.428;2023-07-02T15:01:43;6.30;;;1.58;;
81463;SDS011;70885;52.490;5.428;2023-07-02T15:06:46;3.63;;;1.35;;
81463;SDS011;70885;52.490;5.428;2023-07-02T15:11:47;3.83;;;1.83;;
81463;SDS011;70885;52.490;5.428;2023-07-02T15:16:49;3.42;;;1.25;;
81463;SDS011;70885;52.490;5.428;2023-07-02T15:21:50;3.80;;;1.67;;
81463;SDS011;70885;52.490;5.428;2023-07-02T15:26:52;5.57;;;1.70;;
81463;SDS011;70885;52.490;5.428;2023-07-02T15:31:53;5.55;;;1.40;;
81463;SDS011;70885;52.490;5.428;2023-07-02T15:36:55;6.93;;;1.65;;
81463;SDS011;70885;52.490;5.428;2023-07-02T15:41:56;4.55;;;1.48;;
81463;SDS011;70885;52.490;5.428;2023-07-02T15:46:58;5.78;;;1.88;;
81463;SDS011;70885;52.490;5.428;2023-07-02T15:52:00;4.57;;;1.83;;
81463;SDS011;70885;52.490;5.428;2023-07-02T15:57:01;3.80;;;1.05;;
81463;SDS011;70885;52.490;5.428;2023-07-02T16:02:03;3.13;;;1.02;;
81463;SDS011;70885;52.490;5.428;2023-07-02T16:07:06;4.30;;;1.30;;
81463;SDS011;70885;52.490;5.428;2023-07-02T16:12:09;4.50;;;1.25;;
81463;SDS011;70885;52.490;5.428;2023-07-02T16:17:10;4.10;;;1.45;;
81463;SDS011;70885;52.490;5.428;2023-07-02T16:22:12;2.47;;;1.23;;
81463;SDS011;70885;52.490;5.428;2023-07-02T16:27:18;4.75;;;0.98;;
81463;SDS011;70885;52.490;5.428;2023-07-02T16:32:20;4.45;;;1.25;;
81463;SDS011;70885;52.490;5.428;2023-07-02T16:37:25;4.72;;;1.27;;
81463;SDS011;70885;52.490;5.428;2023-07-02T16:42:27;3.47;;;1.52;;
81463;SDS011;70885;52.490;5.428;2023-07-02T16:47:29;5.35;;;1.40;;
81463;SDS011;70885;52.490;5.428;2023-07-02T16:52:31;4.95;;;1.65;;
81463;SDS011;70885;52.490;5.428;2023-07-02T16:57:33;5.70;;;2.47;;
81463;SDS011;70885;52.490;5.428;2023-07-02T17:02:34;6.35;;;1.85;;
81463;SDS011;70885;52.490;5.428;2023-07-02T17:07:37;5.13;;;2.35;;
81463;SDS011;70885;52.490;5.428;2023-07-02T17:12:38;5.50;;;1.70;;
81463;SDS011;70885;52.490;5.428;2023-07-02T17:17:40;4.53;;;1.55;;
81463;SDS011;70885;52.490;5.428;2023-07-02T17:22:41;6.32;;;2.10;;
81463;SDS011;70885;52.490;5.428;2023-07-02T17:27:43;4.90;;;1.70;;
81463;SDS011;70885;52.490;5.428;2023-07-02T17:32:44;6.18;;;2.05;;
81463;SDS011;70885;52.490;5.428;2023-07-02T17:37:46;6.25;;;2.20;;
81463;SDS011;70885;52.490;5.428;2023-07-02T17:42:47;10.00;;;2.35;;
81463;SDS011;70885;52.490;5.428;2023-07-02T17:47:49;4.63;;;1.88;;
81463;SDS011;70885;52.490;5.428;2023-07-02T17:52:50;6.28;;;1.95;;
81463;SDS011;70885;52.490;5.428;2023-07-02T17:57:52;7.40;;;2.25;;
81463;SDS011;70885;52.490;5.428;2023-07-02T18:02:53;11.25;;;3.40;;
81463;SDS011;70885;52.490;5.428;2023-07-02T18:07:55;9.30;;;2.10;;
81463;SDS011;70885;52.490;5.428;2023-07-02T18:12:56;7.53;;;2.33;;
81463;SDS011;70885;52.490;5.428;2023-07-02T18:17:58;9.75;;;2.90;;
81463;SDS011;70885;52.490;5.428;2023-07-02T18:22:59;7.63;;;2.05;;
81463;SDS011;70885;52.490;5.428;2023-07-02T18:28:05;9.95;;;2.50;;
81463;SDS011;70885;52.490;5.428;2023-07-02T18:33:08;9.48;;;3.13;;
81463;SDS011;70885;52.490;5.428;2023-07-02T18:38:09;5.68;;;2.15;;
81463;SDS011;70885;52.490;5.428;2023-07-02T18:43:11;8.00;;;2.08;;
81463;SDS011;70885;52.490;5.428;2023-07-02T18:48:13;7.80;;;2.60;;
81463;SDS011;70885;52.490;5.428;2023-07-02T18:53:14;9.57;;;2.70;;
81463;SDS011;70885;52.490;5.428;2023-07-02T18:58:16;8.23;;;2.42;;
81463;SDS011;70885;52.490;5.428;2023-07-02T19:03:18;8.70;;;2.47;;
81463;SDS011;70885;52.490;5.428;2023-07-02T19:08:19;7.38;;;2.10;;
81463;SDS011;70885;52.490;5.428;2023-07-02T19:13:22;5.70;;;2.00;;
81463;SDS011;70885;52.490;5.428;2023-07-02T19:18:25;6.35;;;1.83;;
81463;SDS011;70885;52.490;5.428;2023-07-02T19:23:27;10.20;;;2.45;;
81463;SDS011;70885;52.490;5.428;2023-07-02T19:28:33;6.50;;;2.42;;
81463;SDS011;70885;52.490;5.428;2023-07-02T19:33:35;7.28;;;2.25;;
81463;SDS011;70885;52.490;5.428;2023-07-02T19:38:36;7.72;;;2.30;;
81463;SDS011;70885;52.490;5.428;2023-07-02T19:43:38;7.47;;;2.40;;
81463;SDS011;70885;52.490;5.428;2023-07-02T19:48:39;6.72;;;2.53;;
81463;SDS011;70885;52.490;5.428;2023-07-02T19:53:41;8.35;;;2.17;;
81463;SDS011;70885;52.490;5.428;2023-07-02T19:58:42;7.28;;;2.10;;
81463;SDS011;70885;52.490;5.428;2023-07-02T20:03:44;7.05;;;1.90;;
81463;SDS011;70885;52.490;5.428;2023-07-02T20:08:45;4.22;;;1.55;;
81463;SDS011;70885;52.490;5.428;2023-07-02T20:13:48;6.30;;;1.90;;
81463;SDS011;70885;52.490;5.428;2023-07-02T20:18:49;8.20;;;2.10;;
81463;SDS011;70885;52.490;5.428;2023-07-02T20:23:51;6.55;;;1.58;;
81463;SDS011;70885;52.490;5.428;2023-07-02T20:28:52;6.28;;;1.95;;
81463;SDS011;70885;52.490;5.428;2023-07-02T20:33:54;8.85;;;1.92;;
81463;SDS011;70885;52.490;5.428;2023-07-02T20:38:55;8.05;;;2.13;;
81463;SDS011;70885;52.490;5.428;2023-07-02T20:44:00;10.50;;;2.67;;
81463;SDS011;70885;52.490;5.428;2023-07-02T20:49:03;8.00;;;2.10;;
81463;SDS011;70885;52.490;5.428;2023-07-02T20:54:06;8.32;;;2.53;;
81463;SDS011;70885;52.490;5.428;2023-07-02T20:59:08;13.02;;;2.40;;
81463;SDS011;70885;52.490;5.428;2023-07-02T21:04:10;10.68;;;2.47;;
81463;SDS011;70885;52.490;5.428;2023-07-02T21:09:12;9.55;;;3.30;;
81463;SDS011;70885;52.490;5.428;2023-07-02T21:14:13;5.63;;;2.28;;
81463;SDS011;70885;52.490;5.428;2023-07-02T21:19:15;6.43;;;2.45;;
81463;SDS011;70885;52.490;5.428;2023-07-02T21:24:18;11.65;;;2.70;;
81463;SDS011;70885;52.490;5.428;2023-07-02T21:29:19;9.52;;;2.53;;
81463;SDS011;70885;52.490;5.428;2023-07-02T21:34:21;12.32;;;3.80;;
81463;SDS011;70885;52.490;5.428;2023-07-02T21:39:22;9.10;;;2.13;;
81463;SDS011;70885;52.490;5.428;2023-07-02T21:44:24;6.68;;;1.90;;
81463;SDS011;70885;52.490;5.428;2023-07-02T21:49:25;8.57;;;2.10;;
81463;SDS011;70885;52.490;5.428;2023-07-02T21:54:27;6.57;;;2.38;;
81463;SDS011;70885;52.490;5.428;2023-07-02T21:59:29;8.13;;;1.85;;
81463;SDS011;70885;52.490;5.428;2023-07-02T22:04:30;12.20;;;2.78;;
81463;SDS011;70885;52.490;5.428;2023-07-02T22:09:32;9.20;;;2.35;;
81463;SDS011;70885;52.490;5.428;2023-07-02T22:14:34;9.05;;;2.47;;
81463;SDS011;70885;52.490;5.428;2023-07-02T22:19:36;12.88;;;2.15;;
81463;SDS011;70885;52.490;5.428;2023-07-02T22:24:38;8.25;;;1.73;;
81463;SDS011;70885;52.490;5.428;2023-07-02T22:29:43;9.23;;;2.85;;
81463;SDS011;70885;52.490;5.428;2023-07-02T22:34:44;13.15;;;2.70;;
81463;SDS011;70885;52.490;5.428;2023-07-02T22:39:46;9.75;;;2.13;;
81463;SDS011;70885;52.490;5.428;2023-07-02T22:44:48;6.82;;;2.05;;
81463;SDS011;70885;52.490;5.428;2023-07-02T22:49:50;8.38;;;2.42;;
81463;SDS011;70885;52.490;5.428;2023-07-02T22:54:52;6.57;;;1.65;;
81463;SDS011;70885;52.490;5.428;2023-07-02T22:59:54;8.57;;;2.28;;
81463;SDS011;70885;52.490;5.428;2023-07-02T23:04:55;12.57;;;2.13;;
81463;SDS011;70885;52.490;5.428;2023-07-02T23:09:57;10.52;;;2.03;;
81463;SDS011;70885;52.490;5.428;2023-07-02T23:15:00;7.63;;;2.20;;
81463;SDS011;70885;52.490;5.428;2023-07-02T23:20:01;8.90;;;2.47;;
81463;SDS011;70885;52.490;5.428;2023-07-02T23:25:03;10.90;;;2.33;;
81463;SDS011;70885;52.490;5.428;2023-07-02T23:30:10;6.60;;;2.20;;
81463;SDS011;70885;52.490;5.428;2023-07-02T23:35:15;8.55;;;1.80;;
81463;SDS011;70885;52.490;5.428;2023-07-02T23:40:17;9.45;;;1.55;;
81463;SDS011;70885;52.490;5.428;2023-07-02T23:45:19;10.40;;;2.55;;
81463;SDS011;70885;52.490;5.428;2023-07-02T23:50:21;11.98;;;2.60;;
81463;SDS011;70885;52.490;5.428;2023-07-02T23:55:23;12.85;;;2.42;;
